National Weather Service Raw Text Product

Displaying AFOS PIL: TAFOTM Received: 2018-12-06 05:21 UTC


049 
FTUS43 KDMX 060521
TAFOTM
TAF
KOTM 060521Z 0606/0706 33010KT P6SM SCT200=